TimePST,TemperatureF,Dew PointF,Humidity,Sea Level PressureIn,VisibilityMPH,Wind Direction,Wind SpeedMPH,Gust SpeedMPH,PrecipitationIn,Events,Conditions,WindDirDegrees,DateUTC
1:56 AM,30.0,28.0,92,29.70,10.0,Calm,Calm,-,N/A,,Partly Cloudy,0,2012-12-26 09:56:00
2:56 AM,30.9,28.0,89,29.70,10.0,NNE,3.5,-,N/A,,Overcast,30,2012-12-26 10:56:00
4:04 AM,30.2,28.4,93,29.66,1.8,Calm,Calm,-,0.00,Snow,Light Snow,0,2012-12-26 12:04:00
4:17 AM,30.2,28.4,93,29.66,2.5,Calm,Calm,-,0.00,Snow,Light Snow,0,2012-12-26 12:17:00
4:42 AM,30.2,28.4,93,29.66,2.5,Calm,Calm,-,0.00,Snow,Light Snow,0,2012-12-26 12:42:00
4:51 AM,30.2,28.4,93,29.66,2.5,West,4.6,-,0.00,Snow,Light Snow,260,2012-12-26 12:51:00
4:56 AM,30.0,28.9,96,29.70,2.5,West,4.6,-,0.00,Snow,Light Snow,280,2012-12-26 12:56:00
5:20 AM,30.2,28.4,93,29.67,1.8,Calm,Calm,-,0.00,Snow,Light Snow,0,2012-12-26 13:20:00
5:31 AM,30.2,28.4,93,29.67,3.0,Calm,Calm,-,0.00,Snow,Light Snow,0,2012-12-26 13:31:00
5:56 AM,30.0,28.0,92,29.73,5.0,West,3.5,-,0.00,Snow,Light Snow,270,2012-12-26 13:56:00
6:19 AM,28.4,28.4,100,29.69,4.0,NW,5.8,-,0.00,Snow,Light Snow,310,2012-12-26 14:19:00
6:56 AM,28.9,27.0,92,29.75,7.0,WNW,4.6,-,0.00,,Overcast,290,2012-12-26 14:56:00
7:56 AM,28.9,27.0,92,29.77,2.5,West,3.5,-,0.00,Snow,Light Snow,280,2012-12-26 15:56:00
8:05 AM,28.4,26.6,93,29.72,1.8,Calm,Calm,-,0.00,Snow,Light Snow,0,2012-12-26 16:05:00
8:32 AM,28.4,28.4,100,29.73,2.0,WNW,3.5,-,0.00,Snow,Light Snow,290,2012-12-26 16:32:00
8:56 AM,28.9,28.0,96,29.79,3.0,WNW,3.5,-,0.00,,Overcast,300,2012-12-26 16:56:00
9:56 AM,28.9,28.0,96,29.83,1.0,Calm,Calm,-,N/A,,Overcast,0,2012-12-26 17:56:00
10:56 AM,30.0,28.0,92,29.83,1.0,Calm,Calm,-,N/A,,Overcast,0,2012-12-26 18:56:00
11:56 AM,30.0,28.9,96,29.83,1.0,Calm,Calm,-,N/A,,Overcast,0,2012-12-26 19:56:00
12:56 PM,32.0,30.0,92,29.82,1.0,Calm,Calm,-,N/A,,Overcast,0,2012-12-26 20:56:00
1:56 PM,34.0,30.0,85,29.83,10.0,Calm,Calm,-,N/A,,Mostly Cloudy,0,2012-12-26 21:56:00
2:13 PM,35.6,30.2,81,29.78,10.0,NNE,4.6,-,N/A,,Partly Cloudy,30,2012-12-26 22:13:00
2:56 PM,35.1,30.0,82,29.83,10.0,ENE,4.6,-,N/A,,Partly Cloudy,70,2012-12-26 22:56:00
3:09 PM,33.8,30.2,87,29.79,1.5,ESE,3.5,-,N/A,,Clear,110,2012-12-26 23:09:00
3:17 PM,33.8,30.2,87,29.79,10.0,ESE,3.5,-,N/A,,Clear,110,2012-12-26 23:17:00
3:56 PM,30.0,28.0,92,29.86,10.0,Calm,Calm,-,N/A,,Scattered Clouds,0,2012-12-26 23:56:00
4:40 PM,28.4,26.6,93,29.82,2.5,ENE,3.5,-,N/A,,Overcast,60,2012-12-27 00:40:00
4:47 PM,28.4,26.6,93,29.82,1.0,Calm,Calm,-,N/A,,Overcast,0,2012-12-27 00:47:00
4:56 PM,28.9,28.0,96,29.88,1.2,Calm,Calm,-,N/A,,Overcast,0,2012-12-27 00:56:00
5:36 PM,28.4,26.6,93,29.84,1.2,Calm,Calm,-,N/A,,Overcast,0,2012-12-27 01:36:00
5:42 PM,28.4,26.6,93,29.84,3.0,Variable,3.5,-,N/A,,Overcast,0,2012-12-27 01:42:00
5:44 PM,28.4,26.6,93,29.84,4.0,Calm,Calm,-,N/A,,Overcast,0,2012-12-27 01:44:00
5:51 PM,28.4,28.4,100,29.84,7.0,Calm,Calm,-,N/A,,Overcast,0,2012-12-27 01:51:00
5:56 PM,28.9,28.0,96,29.90,8.0,Calm,Calm,-,N/A,,Overcast,0,2012-12-27 01:56:00
6:56 PM,28.9,28.0,96,29.92,9.0,Calm,Calm,-,N/A,,Overcast,0,2012-12-27 02:56:00
7:56 PM,28.9,27.0,92,29.94,10.0,Calm,Calm,-,0.00,,Overcast,0,2012-12-27 03:56:00
8:56 PM,25.0,23.0,92,29.96,3.0,Calm,Calm,-,N/A,,Mostly Cloudy,0,2012-12-27 04:56:00
9:56 PM,27.0,25.0,92,29.98,10.0,South,3.5,-,N/A,,Overcast,170,2012-12-27 05:56:00
10:56 PM,27.0,25.0,92,29.99,10.0,Calm,Calm,-,N/A,,Overcast,0,2012-12-27 06:56:00
11:56 PM,25.0,24.1,96,30.01,10.0,South,6.9,-,N/A,,Clear,170,2012-12-27 07:56:00